O-RH(METAR)
10/20 06:00
METAR O-RH 192100Z 00000KT 9999 FEW020 SCT035 BKN230 12/11 Q1022 RMK
1CU020 3CU035 A3020=
戻る
トップページへ戻る
IMOC Co,.Ltd.